Terminal Aerodrome Forecast
Issued by NWS

Home | Current Version | Previous Version | Text Only | Print | Product List | Glossary On
Versions: 1 2 3 4 5 6 7 8 9 10 11 12 13 14 15 16 17 18 19 20 21 22 23 24 25
000
FTUS45 KGGW 231721
TAFGDV
TAF
KGDV 231721Z 2318/2418 30026G36KT P6SM FEW170
     FM240300 31015G24KT P6SM SKC
     FM240500 31011KT P6SM SKC
     FM241100 29007KT P6SM FEW210=

USA.gov is the U.S. government's official web portal to all federal, state and local government web resources and services.